sensor_id;sensor_type;location;lat;lon;timestamp;P1;durP1;ratioP1;P2;durP2;ratioP2
16737;SDS011;17906;47.684;10.806;2023-01-31T00:01:04;9.27;;;3.83;;
16737;SDS011;17906;47.684;10.806;2023-01-31T00:03:33;10.30;;;3.93;;
16737;SDS011;17906;47.684;10.806;2023-01-31T00:06:09;7.47;;;3.57;;
16737;SDS011;17906;47.684;10.806;2023-01-31T00:08:37;11.30;;;4.10;;
16737;SDS011;17906;47.684;10.806;2023-01-31T00:11:04;8.77;;;3.87;;
16737;SDS011;17906;47.684;10.806;2023-01-31T00:13:31;7.80;;;3.63;;
16737;SDS011;17906;47.684;10.806;2023-01-31T00:15:58;7.30;;;3.60;;
16737;SDS011;17906;47.684;10.806;2023-01-31T00:18:25;8.50;;;3.47;;
16737;SDS011;17906;47.684;10.806;2023-01-31T00:20:51;8.23;;;3.53;;
16737;SDS011;17906;47.684;10.806;2023-01-31T00:23:19;7.53;;;3.43;;
16737;SDS011;17906;47.684;10.806;2023-01-31T00:25:46;9.70;;;3.70;;
16737;SDS011;17906;47.684;10.806;2023-01-31T00:28:13;9.57;;;4.00;;
16737;SDS011;17906;47.684;10.806;2023-01-31T00:30:39;8.90;;;3.27;;
16737;SDS011;17906;47.684;10.806;2023-01-31T00:33:06;6.80;;;3.30;;
16737;SDS011;17906;47.684;10.806;2023-01-31T00:35:33;9.07;;;3.63;;
16737;SDS011;17906;47.684;10.806;2023-01-31T00:37:59;10.37;;;4.10;;
16737;SDS011;17906;47.684;10.806;2023-01-31T00:40:27;7.57;;;3.97;;
16737;SDS011;17906;47.684;10.806;2023-01-31T00:42:53;7.27;;;3.50;;
16737;SDS011;17906;47.684;10.806;2023-01-31T00:45:20;6.70;;;3.37;;
16737;SDS011;17906;47.684;10.806;2023-01-31T00:47:46;9.43;;;4.07;;
16737;SDS011;17906;47.684;10.806;2023-01-31T00:50:13;8.20;;;3.90;;
16737;SDS011;17906;47.684;10.806;2023-01-31T00:52:40;8.90;;;3.80;;
16737;SDS011;17906;47.684;10.806;2023-01-31T00:55:07;7.83;;;3.30;;
16737;SDS011;17906;47.684;10.806;2023-01-31T00:57:35;6.87;;;3.40;;
16737;SDS011;17906;47.684;10.806;2023-01-31T01:00:02;9.17;;;3.57;;
16737;SDS011;17906;47.684;10.806;2023-01-31T01:02:30;8.63;;;3.93;;
16737;SDS011;17906;47.684;10.806;2023-01-31T01:04:56;6.37;;;3.30;;
16737;SDS011;17906;47.684;10.806;2023-01-31T01:07:23;8.30;;;3.63;;
16737;SDS011;17906;47.684;10.806;2023-01-31T01:09:49;10.67;;;3.87;;
16737;SDS011;17906;47.684;10.806;2023-01-31T01:12:18;7.40;;;3.60;;
16737;SDS011;17906;47.684;10.806;2023-01-31T01:14:46;6.60;;;3.50;;
16737;SDS011;17906;47.684;10.806;2023-01-31T01:17:13;8.37;;;3.30;;
16737;SDS011;17906;47.684;10.806;2023-01-31T01:19:39;9.33;;;3.20;;
16737;SDS011;17906;47.684;10.806;2023-01-31T01:22:06;6.63;;;3.27;;
16737;SDS011;17906;47.684;10.806;2023-01-31T01:24:32;8.27;;;3.10;;
16737;SDS011;17906;47.684;10.806;2023-01-31T01:26:59;5.30;;;3.23;;
16737;SDS011;17906;47.684;10.806;2023-01-31T01:29:26;7.23;;;3.13;;
16737;SDS011;17906;47.684;10.806;2023-01-31T01:31:54;6.70;;;2.93;;
16737;SDS011;17906;47.684;10.806;2023-01-31T01:34:20;7.43;;;3.40;;
16737;SDS011;17906;47.684;10.806;2023-01-31T01:36:47;7.57;;;3.40;;
16737;SDS011;17906;47.684;10.806;2023-01-31T01:39:13;6.60;;;3.23;;
16737;SDS011;17906;47.684;10.806;2023-01-31T01:41:40;6.67;;;3.63;;
16737;SDS011;17906;47.684;10.806;2023-01-31T01:47:12;7.40;;;3.60;;
16737;SDS011;17906;47.684;10.806;2023-01-31T01:49:42;7.47;;;3.70;;
16737;SDS011;17906;47.684;10.806;2023-01-31T01:52:11;8.50;;;3.47;;
16737;SDS011;17906;47.684;10.806;2023-01-31T01:54:43;7.63;;;3.27;;
16737;SDS011;17906;47.684;10.806;2023-01-31T01:57:14;9.00;;;3.17;;
16737;SDS011;17906;47.684;10.806;2023-01-31T01:59:44;5.83;;;3.50;;
16737;SDS011;17906;47.684;10.806;2023-01-31T02:02:14;8.20;;;3.77;;
16737;SDS011;17906;47.684;10.806;2023-01-31T02:04:41;7.73;;;4.10;;
16737;SDS011;17906;47.684;10.806;2023-01-31T02:07:11;6.07;;;3.37;;
16737;SDS011;17906;47.684;10.806;2023-01-31T02:09:41;10.60;;;3.50;;
16737;SDS011;17906;47.684;10.806;2023-01-31T02:12:13;8.33;;;3.70;;
16737;SDS011;17906;47.684;10.806;2023-01-31T02:14:40;7.80;;;3.20;;
16737;SDS011;17906;47.684;10.806;2023-01-31T02:17:10;7.43;;;3.50;;
16737;SDS011;17906;47.684;10.806;2023-01-31T02:19:42;7.40;;;3.17;;
16737;SDS011;17906;47.684;10.806;2023-01-31T02:22:18;7.70;;;3.70;;
16737;SDS011;17906;47.684;10.806;2023-01-31T02:25:13;8.27;;;3.30;;
16737;SDS011;17906;47.684;10.806;2023-01-31T02:28:09;6.83;;;3.37;;
16737;SDS011;17906;47.684;10.806;2023-01-31T02:30:56;7.07;;;3.47;;
16737;SDS011;17906;47.684;10.806;2023-01-31T02:33:38;5.80;;;3.33;;
16737;SDS011;17906;47.684;10.806;2023-01-31T02:36:11;8.77;;;3.60;;
16737;SDS011;17906;47.684;10.806;2023-01-31T02:38:50;11.03;;;4.27;;
16737;SDS011;17906;47.684;10.806;2023-01-31T02:41:26;8.50;;;3.70;;
16737;SDS011;17906;47.684;10.806;2023-01-31T02:43:58;7.70;;;3.67;;
16737;SDS011;17906;47.684;10.806;2023-01-31T02:46:50;9.73;;;3.90;;
16737;SDS011;17906;47.684;10.806;2023-01-31T02:49:26;7.70;;;3.67;;
16737;SDS011;17906;47.684;10.806;2023-01-31T02:52:05;10.20;;;4.57;;
16737;SDS011;17906;47.684;10.806;2023-01-31T02:54:41;8.60;;;3.80;;
16737;SDS011;17906;47.684;10.806;2023-01-31T02:57:30;9.40;;;4.17;;
16737;SDS011;17906;47.684;10.806;2023-01-31T02:59:58;9.90;;;4.67;;
16737;SDS011;17906;47.684;10.806;2023-01-31T03:02:25;7.43;;;3.63;;
16737;SDS011;17906;47.684;10.806;2023-01-31T03:04:53;9.30;;;4.30;;
16737;SDS011;17906;47.684;10.806;2023-01-31T03:07:20;8.87;;;4.07;;
16737;SDS011;17906;47.684;10.806;2023-01-31T03:09:53;8.67;;;3.70;;
16737;SDS011;17906;47.684;10.806;2023-01-31T03:15:20;11.00;;;4.67;;
16737;SDS011;17906;47.684;10.806;2023-01-31T03:18:24;8.93;;;3.90;;
16737;SDS011;17906;47.684;10.806;2023-01-31T03:20:56;8.73;;;4.00;;
16737;SDS011;17906;47.684;10.806;2023-01-31T03:23:28;8.83;;;3.57;;
16737;SDS011;17906;47.684;10.806;2023-01-31T03:25:58;10.80;;;4.10;;
16737;SDS011;17906;47.684;10.806;2023-01-31T03:28:28;9.73;;;3.70;;
16737;SDS011;17906;47.684;10.806;2023-01-31T03:31:00;10.27;;;3.87;;
16737;SDS011;17906;47.684;10.806;2023-01-31T03:33:31;10.07;;;4.13;;
16737;SDS011;17906;47.684;10.806;2023-01-31T03:36:03;12.03;;;4.07;;
16737;SDS011;17906;47.684;10.806;2023-01-31T03:38:38;7.93;;;3.70;;
16737;SDS011;17906;47.684;10.806;2023-01-31T03:41:16;8.37;;;3.83;;
16737;SDS011;17906;47.684;10.806;2023-01-31T03:43:49;11.07;;;4.07;;
16737;SDS011;17906;47.684;10.806;2023-01-31T03:46:24;7.07;;;3.47;;
16737;SDS011;17906;47.684;10.806;2023-01-31T03:48:56;8.13;;;3.53;;
16737;SDS011;17906;47.684;10.806;2023-01-31T03:51:26;10.50;;;3.80;;
16737;SDS011;17906;47.684;10.806;2023-01-31T03:53:57;8.03;;;3.43;;
16737;SDS011;17906;47.684;10.806;2023-01-31T03:56:27;8.37;;;3.87;;
16737;SDS011;17906;47.684;10.806;2023-01-31T03:58:58;9.00;;;3.00;;
16737;SDS011;17906;47.684;10.806;2023-01-31T04:01:28;11.03;;;4.30;;
16737;SDS011;17906;47.684;10.806;2023-01-31T04:04:00;7.37;;;3.33;;
16737;SDS011;17906;47.684;10.806;2023-01-31T04:06:34;11.93;;;3.70;;
16737;SDS011;17906;47.684;10.806;2023-01-31T04:09:01;8.70;;;3.33;;
16737;SDS011;17906;47.684;10.806;2023-01-31T04:11:28;7.07;;;3.23;;
16737;SDS011;17906;47.684;10.806;2023-01-31T04:13:55;10.23;;;3.00;;
16737;SDS011;17906;47.684;10.806;2023-01-31T04:16:21;6.53;;;3.03;;
16737;SDS011;17906;47.684;10.806;2023-01-31T04:18:48;11.87;;;3.43;;
16737;SDS011;17906;47.684;10.806;2023-01-31T04:21:15;8.10;;;3.13;;
16737;SDS011;17906;47.684;10.806;2023-01-31T04:23:43;7.37;;;2.73;;
16737;SDS011;17906;47.684;10.806;2023-01-31T04:26:10;6.80;;;3.10;;
16737;SDS011;17906;47.684;10.806;2023-01-31T04:28:36;8.60;;;3.00;;
16737;SDS011;17906;47.684;10.806;2023-01-31T04:31:03;6.83;;;3.23;;
16737;SDS011;17906;47.684;10.806;2023-01-31T04:33:30;5.47;;;2.50;;
16737;SDS011;17906;47.684;10.806;2023-01-31T04:35:56;6.80;;;3.20;;
16737;SDS011;17906;47.684;10.806;2023-01-31T04:38:23;10.50;;;3.20;;
16737;SDS011;17906;47.684;10.806;2023-01-31T04:40:51;8.47;;;3.00;;
16737;SDS011;17906;47.684;10.806;2023-01-31T04:43:17;5.23;;;2.50;;
16737;SDS011;17906;47.684;10.806;2023-01-31T04:45:44;6.47;;;2.87;;
16737;SDS011;17906;47.684;10.806;2023-01-31T04:48:11;7.80;;;3.13;;
16737;SDS011;17906;47.684;10.806;2023-01-31T04:50:38;8.23;;;3.60;;
16737;SDS011;17906;47.684;10.806;2023-01-31T04:53:04;9.60;;;3.17;;
16737;SDS011;17906;47.684;10.806;2023-01-31T04:55:32;9.83;;;2.90;;
16737;SDS011;17906;47.684;10.806;2023-01-31T04:58:00;12.23;;;4.77;;
16737;SDS011;17906;47.684;10.806;2023-01-31T05:00:27;9.60;;;3.10;;
16737;SDS011;17906;47.684;10.806;2023-01-31T05:02:54;6.57;;;3.40;;
16737;SDS011;17906;47.684;10.806;2023-01-31T05:05:20;13.10;;;5.77;;
16737;SDS011;17906;47.684;10.806;2023-01-31T05:07:47;13.23;;;6.00;;
16737;SDS011;17906;47.684;10.806;2023-01-31T05:10:13;11.77;;;5.57;;
16737;SDS011;17906;47.684;10.806;2023-01-31T05:12:42;9.87;;;5.27;;
16737;SDS011;17906;47.684;10.806;2023-01-31T05:15:10;12.70;;;5.47;;
16737;SDS011;17906;47.684;10.806;2023-01-31T05:17:37;14.20;;;4.40;;
16737;SDS011;17906;47.684;10.806;2023-01-31T05:20:04;11.33;;;4.03;;
16737;SDS011;17906;47.684;10.806;2023-01-31T05:22:32;8.60;;;3.77;;
16737;SDS011;17906;47.684;10.806;2023-01-31T05:24:58;6.37;;;3.30;;
16737;SDS011;17906;47.684;10.806;2023-01-31T05:27:25;7.10;;;3.40;;
16737;SDS011;17906;47.684;10.806;2023-01-31T05:29:51;10.63;;;3.83;;
16737;SDS011;17906;47.684;10.806;2023-01-31T05:32:19;9.30;;;3.93;;
16737;SDS011;17906;47.684;10.806;2023-01-31T05:34:46;8.17;;;3.67;;
16737;SDS011;17906;47.684;10.806;2023-01-31T05:37:13;7.73;;;3.50;;
16737;SDS011;17906;47.684;10.806;2023-01-31T05:39:39;9.63;;;4.20;;
16737;SDS011;17906;47.684;10.806;2023-01-31T05:42:06;21.70;;;9.30;;
16737;SDS011;17906;47.684;10.806;2023-01-31T05:44:32;10.07;;;4.50;;
16737;SDS011;17906;47.684;10.806;2023-01-31T05:46:59;9.63;;;3.90;;
16737;SDS011;17906;47.684;10.806;2023-01-31T05:49:27;12.67;;;4.13;;
16737;SDS011;17906;47.684;10.806;2023-01-31T05:51:57;14.33;;;3.90;;
16737;SDS011;17906;47.684;10.806;2023-01-31T05:54:24;9.77;;;4.03;;
16737;SDS011;17906;47.684;10.806;2023-01-31T05:56:50;12.73;;;3.93;;
16737;SDS011;17906;47.684;10.806;2023-01-31T05:59:17;9.07;;;4.17;;
16737;SDS011;17906;47.684;10.806;2023-01-31T06:01:43;6.90;;;3.27;;
16737;SDS011;17906;47.684;10.806;2023-01-31T06:04:10;8.07;;;3.97;;
16737;SDS011;17906;47.684;10.806;2023-01-31T06:06:38;9.27;;;3.87;;
16737;SDS011;17906;47.684;10.806;2023-01-31T06:09:04;10.23;;;3.87;;
16737;SDS011;17906;47.684;10.806;2023-01-31T06:11:31;12.50;;;4.23;;
16737;SDS011;17906;47.684;10.806;2023-01-31T06:13:58;13.20;;;4.00;;
16737;SDS011;17906;47.684;10.806;2023-01-31T06:16:24;11.50;;;3.80;;
16737;SDS011;17906;47.684;10.806;2023-01-31T06:18:51;9.90;;;3.40;;
16737;SDS011;17906;47.684;10.806;2023-01-31T06:21:19;8.13;;;3.60;;
16737;SDS011;17906;47.684;10.806;2023-01-31T06:23:47;9.53;;;3.67;;
16737;SDS011;17906;47.684;10.806;2023-01-31T06:26:14;7.33;;;3.37;;
16737;SDS011;17906;47.684;10.806;2023-01-31T06:28:40;10.90;;;4.53;;
16737;SDS011;17906;47.684;10.806;2023-01-31T06:31:07;12.07;;;3.53;;
16737;SDS011;17906;47.684;10.806;2023-01-31T06:33:34;10.67;;;3.90;;
16737;SDS011;17906;47.684;10.806;2023-01-31T06:36:01;13.50;;;4.00;;
16737;SDS011;17906;47.684;10.806;2023-01-31T06:38:28;7.13;;;3.53;;
16737;SDS011;17906;47.684;10.806;2023-01-31T06:40:56;8.13;;;3.63;;
16737;SDS011;17906;47.684;10.806;2023-01-31T06:43:23;8.47;;;4.10;;
16737;SDS011;17906;47.684;10.806;2023-01-31T06:45:50;10.80;;;3.90;;
16737;SDS011;17906;47.684;10.806;2023-01-31T06:48:16;7.67;;;3.40;;
16737;SDS011;17906;47.684;10.806;2023-01-31T06:50:43;9.77;;;3.83;;
16737;SDS011;17906;47.684;10.806;2023-01-31T06:53:10;12.00;;;4.17;;
16737;SDS011;17906;47.684;10.806;2023-01-31T06:55:37;13.27;;;4.23;;
16737;SDS011;17906;47.684;10.806;2023-01-31T06:58:05;8.70;;;4.00;;
16737;SDS011;17906;47.684;10.806;2023-01-31T07:00:31;11.17;;;3.83;;
16737;SDS011;17906;47.684;10.806;2023-01-31T07:02:58;15.10;;;4.80;;
16737;SDS011;17906;47.684;10.806;2023-01-31T07:05:25;16.10;;;5.00;;
16737;SDS011;17906;47.684;10.806;2023-01-31T07:07:52;7.93;;;3.97;;
16737;SDS011;17906;47.684;10.806;2023-01-31T07:10:19;12.10;;;4.13;;
16737;SDS011;17906;47.684;10.806;2023-01-31T07:12:46;15.47;;;5.50;;
16737;SDS011;17906;47.684;10.806;2023-01-31T07:15:13;12.53;;;4.40;;
16737;SDS011;17906;47.684;10.806;2023-01-31T07:17:40;9.30;;;3.70;;
16737;SDS011;17906;47.684;10.806;2023-01-31T07:20:08;12.20;;;3.97;;
16737;SDS011;17906;47.684;10.806;2023-01-31T07:22:35;12.73;;;4.80;;
16737;SDS011;17906;47.684;10.806;2023-01-31T07:25:02;11.77;;;4.60;;
16737;SDS011;17906;47.684;10.806;2023-01-31T07:27:29;14.40;;;4.17;;
16737;SDS011;17906;47.684;10.806;2023-01-31T07:29:56;11.70;;;4.23;;
16737;SDS011;17906;47.684;10.806;2023-01-31T07:32:24;8.63;;;4.13;;
16737;SDS011;17906;47.684;10.806;2023-01-31T07:34:54;9.23;;;4.00;;
16737;SDS011;17906;47.684;10.806;2023-01-31T07:37:20;10.67;;;3.70;;
16737;SDS011;17906;47.684;10.806;2023-01-31T07:39:47;9.80;;;3.90;;
16737;SDS011;17906;47.684;10.806;2023-01-31T07:42:14;8.87;;;3.90;;
16737;SDS011;17906;47.684;10.806;2023-01-31T07:44:41;8.93;;;3.60;;
16737;SDS011;17906;47.684;10.806;2023-01-31T07:47:07;11.13;;;3.90;;
16737;SDS011;17906;47.684;10.806;2023-01-31T07:49:35;9.17;;;3.60;;
16737;SDS011;17906;47.684;10.806;2023-01-31T07:52:02;7.63;;;3.30;;
16737;SDS011;17906;47.684;10.806;2023-01-31T07:54:28;8.83;;;3.73;;
16737;SDS011;17906;47.684;10.806;2023-01-31T07:56:55;9.97;;;3.50;;
16737;SDS011;17906;47.684;10.806;2023-01-31T07:59:22;10.43;;;3.23;;
16737;SDS011;17906;47.684;10.806;2023-01-31T08:01:48;7.00;;;3.33;;
16737;SDS011;17906;47.684;10.806;2023-01-31T08:04:33;8.37;;;3.50;;
16737;SDS011;17906;47.684;10.806;2023-01-31T08:07:01;11.73;;;3.97;;
16737;SDS011;17906;47.684;10.806;2023-01-31T08:09:29;9.20;;;4.33;;
16737;SDS011;17906;47.684;10.806;2023-01-31T08:11:56;12.20;;;3.73;;
16737;SDS011;17906;47.684;10.806;2023-01-31T08:14:22;9.20;;;4.03;;
16737;SDS011;17906;47.684;10.806;2023-01-31T08:16:50;9.90;;;4.37;;
16737;SDS011;17906;47.684;10.806;2023-01-31T08:19:17;13.23;;;4.57;;
16737;SDS011;17906;47.684;10.806;2023-01-31T08:21:45;12.80;;;4.73;;
16737;SDS011;17906;47.684;10.806;2023-01-31T08:24:11;8.00;;;3.97;;
16737;SDS011;17906;47.684;10.806;2023-01-31T08:26:38;13.23;;;4.20;;
16737;SDS011;17906;47.684;10.806;2023-01-31T08:29:07;6.97;;;3.73;;
16737;SDS011;17906;47.684;10.806;2023-01-31T08:31:33;6.40;;;3.43;;
16737;SDS011;17906;47.684;10.806;2023-01-31T08:34:00;15.23;;;3.63;;
16737;SDS011;17906;47.684;10.806;2023-01-31T08:36:27;9.10;;;4.20;;
16737;SDS011;17906;47.684;10.806;2023-01-31T08:38:57;10.03;;;4.17;;
16737;SDS011;17906;47.684;10.806;2023-01-31T08:41:24;8.70;;;3.90;;
16737;SDS011;17906;47.684;10.806;2023-01-31T08:43:51;10.63;;;4.20;;
16737;SDS011;17906;47.684;10.806;2023-01-31T08:46:20;10.23;;;3.83;;
16737;SDS011;17906;47.684;10.806;2023-01-31T08:48:47;9.43;;;5.03;;
16737;SDS011;17906;47.684;10.806;2023-01-31T08:51:13;11.47;;;4.67;;
16737;SDS011;17906;47.684;10.806;2023-01-31T08:53:40;8.13;;;3.90;;
16737;SDS011;17906;47.684;10.806;2023-01-31T08:56:10;8.77;;;3.97;;
16737;SDS011;17906;47.684;10.806;2023-01-31T08:58:38;6.97;;;4.17;;
16737;SDS011;17906;47.684;10.806;2023-01-31T09:01:07;8.83;;;3.47;;
16737;SDS011;17906;47.684;10.806;2023-01-31T09:03:35;7.10;;;3.90;;
16737;SDS011;17906;47.684;10.806;2023-01-31T09:06:03;8.80;;;3.83;;
16737;SDS011;17906;47.684;10.806;2023-01-31T09:08:31;15.10;;;4.20;;
16737;SDS011;17906;47.684;10.806;2023-01-31T09:10:59;11.50;;;4.30;;
16737;SDS011;17906;47.684;10.806;2023-01-31T09:13:27;9.70;;;4.60;;
16737;SDS011;17906;47.684;10.806;2023-01-31T09:15:59;10.53;;;5.13;;
16737;SDS011;17906;47.684;10.806;2023-01-31T09:18:27;6.50;;;3.57;;
16737;SDS011;17906;47.684;10.806;2023-01-31T09:20:54;10.87;;;3.97;;
16737;SDS011;17906;47.684;10.806;2023-01-31T09:23:21;10.83;;;4.53;;
16737;SDS011;17906;47.684;10.806;2023-01-31T09:25:52;8.87;;;4.00;;
16737;SDS011;17906;47.684;10.806;2023-01-31T09:28:18;11.00;;;5.03;;
16737;SDS011;17906;47.684;10.806;2023-01-31T09:30:47;12.10;;;4.90;;
16737;SDS011;17906;47.684;10.806;2023-01-31T09:33:15;9.30;;;4.70;;
16737;SDS011;17906;47.684;10.806;2023-01-31T09:35:42;7.80;;;4.10;;
16737;SDS011;17906;47.684;10.806;2023-01-31T09:38:08;8.87;;;4.37;;
16737;SDS011;17906;47.684;10.806;2023-01-31T09:40:37;8.27;;;3.73;;
16737;SDS011;17906;47.684;10.806;2023-01-31T09:43:04;13.67;;;5.70;;
16737;SDS011;17906;47.684;10.806;2023-01-31T09:45:36;8.47;;;4.00;;
16737;SDS011;17906;47.684;10.806;2023-01-31T09:48:12;7.63;;;4.10;;
16737;SDS011;17906;47.684;10.806;2023-01-31T09:50:44;8.60;;;3.70;;
16737;SDS011;17906;47.684;10.806;2023-01-31T09:53:12;8.37;;;4.37;;
16737;SDS011;17906;47.684;10.806;2023-01-31T09:55:46;6.60;;;2.87;;
16737;SDS011;17906;47.684;10.806;2023-01-31T09:58:19;9.40;;;3.47;;
16737;SDS011;17906;47.684;10.806;2023-01-31T10:00:56;3.93;;;2.00;;
16737;SDS011;17906;47.684;10.806;2023-01-31T10:06:34;4.13;;;2.10;;
16737;SDS011;17906;47.684;10.806;2023-01-31T10:09:07;3.37;;;2.07;;
16737;SDS011;17906;47.684;10.806;2023-01-31T10:11:42;4.27;;;2.03;;
16737;SDS011;17906;47.684;10.806;2023-01-31T10:14:16;4.53;;;2.13;;
16737;SDS011;17906;47.684;10.806;2023-01-31T10:16:50;4.40;;;1.97;;
16737;SDS011;17906;47.684;10.806;2023-01-31T10:19:25;3.13;;;1.90;;
16737;SDS011;17906;47.684;10.806;2023-01-31T10:21:58;4.50;;;1.80;;
16737;SDS011;17906;47.684;10.806;2023-01-31T10:24:30;6.87;;;2.43;;
16737;SDS011;17906;47.684;10.806;2023-01-31T10:27:01;4.60;;;1.87;;
16737;SDS011;17906;47.684;10.806;2023-01-31T10:29:34;6.50;;;2.00;;
16737;SDS011;17906;47.684;10.806;2023-01-31T10:32:05;3.40;;;1.93;;
16737;SDS011;17906;47.684;10.806;2023-01-31T10:34:42;3.90;;;2.10;;
16737;SDS011;17906;47.684;10.806;2023-01-31T10:37:15;3.93;;;2.27;;
16737;SDS011;17906;47.684;10.806;2023-01-31T10:39:49;4.47;;;2.67;;
16737;SDS011;17906;47.684;10.806;2023-01-31T10:42:20;4.13;;;2.10;;
16737;SDS011;17906;47.684;10.806;2023-01-31T10:44:57;3.17;;;1.80;;
16737;SDS011;17906;47.684;10.806;2023-01-31T10:47:28;4.40;;;2.20;;
16737;SDS011;17906;47.684;10.806;2023-01-31T10:49:59;5.53;;;2.40;;
16737;SDS011;17906;47.684;10.806;2023-01-31T10:52:31;4.90;;;2.63;;
16737;SDS011;17906;47.684;10.806;2023-01-31T10:55:15;3.87;;;2.17;;
16737;SDS011;17906;47.684;10.806;2023-01-31T10:57:59;5.37;;;2.63;;
16737;SDS011;17906;47.684;10.806;2023-01-31T11:00:27;5.87;;;2.30;;
16737;SDS011;17906;47.684;10.806;2023-01-31T11:02:55;5.33;;;2.70;;
16737;SDS011;17906;47.684;10.806;2023-01-31T11:05:24;7.27;;;2.80;;
16737;SDS011;17906;47.684;10.806;2023-01-31T11:07:52;7.03;;;3.47;;
16737;SDS011;17906;47.684;10.806;2023-01-31T11:10:21;5.40;;;2.80;;
16737;SDS011;17906;47.684;10.806;2023-01-31T11:12:53;6.83;;;2.83;;
16737;SDS011;17906;47.684;10.806;2023-01-31T11:15:22;4.17;;;2.30;;
16737;SDS011;17906;47.684;10.806;2023-01-31T11:17:52;6.80;;;2.63;;
16737;SDS011;17906;47.684;10.806;2023-01-31T11:20:25;5.13;;;2.40;;
16737;SDS011;17906;47.684;10.806;2023-01-31T11:22:54;7.73;;;2.60;;
16737;SDS011;17906;47.684;10.806;2023-01-31T11:25:23;4.93;;;2.43;;
16737;SDS011;17906;47.684;10.806;2023-01-31T11:27:51;8.00;;;2.60;;
16737;SDS011;17906;47.684;10.806;2023-01-31T11:30:20;4.67;;;2.60;;
16737;SDS011;17906;47.684;10.806;2023-01-31T11:32:50;5.53;;;2.50;;
16737;SDS011;17906;47.684;10.806;2023-01-31T11:35:21;5.17;;;2.33;;
16737;SDS011;17906;47.684;10.806;2023-01-31T11:37:52;5.13;;;2.90;;
16737;SDS011;17906;47.684;10.806;2023-01-31T11:40:20;9.27;;;3.73;;
16737;SDS011;17906;47.684;10.806;2023-01-31T11:42:52;6.73;;;3.10;;
16737;SDS011;17906;47.684;10.806;2023-01-31T11:45:20;5.10;;;2.40;;
16737;SDS011;17906;47.684;10.806;2023-01-31T11:47:48;6.43;;;3.33;;
16737;SDS011;17906;47.684;10.806;2023-01-31T11:50:20;7.67;;;2.97;;
16737;SDS011;17906;47.684;10.806;2023-01-31T11:52:54;4.33;;;1.93;;
16737;SDS011;17906;47.684;10.806;2023-01-31T11:55:22;5.90;;;2.50;;
16737;SDS011;17906;47.684;10.806;2023-01-31T11:57:53;2.90;;;1.60;;
16737;SDS011;17906;47.684;10.806;2023-01-31T12:00:23;3.90;;;1.80;;
16737;SDS011;17906;47.684;10.806;2023-01-31T12:02:57;4.20;;;1.67;;
16737;SDS011;17906;47.684;10.806;2023-01-31T12:05:30;2.67;;;1.70;;
16737;SDS011;17906;47.684;10.806;2023-01-31T12:08:03;3.20;;;1.60;;
16737;SDS011;17906;47.684;10.806;2023-01-31T12:10:34;7.00;;;2.00;;
16737;SDS011;17906;47.684;10.806;2023-01-31T12:13:13;4.03;;;2.13;;
16737;SDS011;17906;47.684;10.806;2023-01-31T12:15:45;4.43;;;2.07;;
16737;SDS011;17906;47.684;10.806;2023-01-31T12:18:18;3.33;;;2.00;;
16737;SDS011;17906;47.684;10.806;2023-01-31T12:20:54;3.63;;;2.10;;
16737;SDS011;17906;47.684;10.806;2023-01-31T12:23:32;4.60;;;1.93;;
16737;SDS011;17906;47.684;10.806;2023-01-31T12:26:07;4.00;;;2.07;;
16737;SDS011;17906;47.684;10.806;2023-01-31T12:28:45;5.83;;;1.93;;
16737;SDS011;17906;47.684;10.806;2023-01-31T12:34:21;4.13;;;1.70;;
16737;SDS011;17906;47.684;10.806;2023-01-31T12:37:09;3.83;;;1.60;;
16737;SDS011;17906;47.684;10.806;2023-01-31T12:39:54;4.80;;;2.10;;
16737;SDS011;17906;47.684;10.806;2023-01-31T12:42:40;4.87;;;2.07;;
16737;SDS011;17906;47.684;10.806;2023-01-31T12:45:22;3.33;;;1.60;;
16737;SDS011;17906;47.684;10.806;2023-01-31T12:48:11;3.17;;;1.60;;
16737;SDS011;17906;47.684;10.806;2023-01-31T12:50:49;2.83;;;1.33;;
16737;SDS011;17906;47.684;10.806;2023-01-31T12:53:25;3.53;;;1.60;;
16737;SDS011;17906;47.684;10.806;2023-01-31T12:56:14;4.70;;;1.80;;
16737;SDS011;17906;47.684;10.806;2023-01-31T12:58:54;3.30;;;1.70;;
16737;SDS011;17906;47.684;10.806;2023-01-31T13:01:30;3.17;;;1.53;;
16737;SDS011;17906;47.684;10.806;2023-01-31T13:04:05;3.10;;;1.60;;
16737;SDS011;17906;47.684;10.806;2023-01-31T13:06:49;4.10;;;1.47;;
16737;SDS011;17906;47.684;10.806;2023-01-31T13:09:20;4.03;;;1.60;;
16737;SDS011;17906;47.684;10.806;2023-01-31T13:11:51;5.13;;;2.00;;
16737;SDS011;17906;47.684;10.806;2023-01-31T13:14:21;6.63;;;2.97;;
16737;SDS011;17906;47.684;10.806;2023-01-31T13:16:50;6.50;;;3.43;;
16737;SDS011;17906;47.684;10.806;2023-01-31T13:19:21;12.00;;;3.97;;
16737;SDS011;17906;47.684;10.806;2023-01-31T13:21:53;6.57;;;2.73;;
16737;SDS011;17906;47.684;10.806;2023-01-31T13:24:23;3.93;;;2.37;;
16737;SDS011;17906;47.684;10.806;2023-01-31T13:26:55;3.73;;;1.83;;
16737;SDS011;17906;47.684;10.806;2023-01-31T13:29:27;6.47;;;2.23;;
16737;SDS011;17906;47.684;10.806;2023-01-31T13:31:58;6.93;;;2.00;;
16737;SDS011;17906;47.684;10.806;2023-01-31T13:34:28;7.07;;;1.73;;
16737;SDS011;17906;47.684;10.806;2023-01-31T13:37:01;7.23;;;2.00;;
16737;SDS011;17906;47.684;10.806;2023-01-31T13:39:32;3.50;;;1.77;;
16737;SDS011;17906;47.684;10.806;2023-01-31T13:42:03;4.80;;;2.20;;
16737;SDS011;17906;47.684;10.806;2023-01-31T13:44:30;5.03;;;2.20;;
16737;SDS011;17906;47.684;10.806;2023-01-31T13:46:59;2.80;;;1.70;;
16737;SDS011;17906;47.684;10.806;2023-01-31T13:49:30;4.47;;;1.73;;
16737;SDS011;17906;47.684;10.806;2023-01-31T13:52:02;2.70;;;1.50;;
16737;SDS011;17906;47.684;10.806;2023-01-31T13:54:36;2.73;;;1.67;;
16737;SDS011;17906;47.684;10.806;2023-01-31T13:57:15;2.47;;;1.63;;
16737;SDS011;17906;47.684;10.806;2023-01-31T13:59:50;2.17;;;1.40;;
16737;SDS011;17906;47.684;10.806;2023-01-31T14:02:19;2.00;;;1.40;;
16737;SDS011;17906;47.684;10.806;2023-01-31T14:04:46;5.07;;;1.70;;
16737;SDS011;17906;47.684;10.806;2023-01-31T14:07:14;2.43;;;1.30;;
16737;SDS011;17906;47.684;10.806;2023-01-31T14:10:23;2.30;;;1.20;;
16737;SDS011;17906;47.684;10.806;2023-01-31T14:16:02;2.57;;;1.23;;
16737;SDS011;17906;47.684;10.806;2023-01-31T14:18:51;2.77;;;1.33;;
16737;SDS011;17906;47.684;10.806;2023-01-31T14:24:17;2.07;;;1.30;;
16737;SDS011;17906;47.684;10.806;2023-01-31T14:26:49;4.10;;;1.53;;
16737;SDS011;17906;47.684;10.806;2023-01-31T14:29:19;2.43;;;1.23;;
16737;SDS011;17906;47.684;10.806;2023-01-31T14:31:48;2.40;;;1.20;;
16737;SDS011;17906;47.684;10.806;2023-01-31T14:34:17;2.13;;;1.03;;
16737;SDS011;17906;47.684;10.806;2023-01-31T14:39:48;1.87;;;1.00;;
16737;SDS011;17906;47.684;10.806;2023-01-31T14:42:34;2.83;;;1.33;;
16737;SDS011;17906;47.684;10.806;2023-01-31T14:45:17;3.77;;;1.60;;
16737;SDS011;17906;47.684;10.806;2023-01-31T14:48:13;3.23;;;1.30;;
16737;SDS011;17906;47.684;10.806;2023-01-31T14:53:50;7.73;;;2.13;;
16737;SDS011;17906;47.684;10.806;2023-01-31T14:56:34;3.13;;;1.50;;
16737;SDS011;17906;47.684;10.806;2023-01-31T14:59:21;3.37;;;1.20;;
16737;SDS011;17906;47.684;10.806;2023-01-31T15:01:52;2.77;;;1.00;;
16737;SDS011;17906;47.684;10.806;2023-01-31T15:04:20;2.43;;;1.10;;
16737;SDS011;17906;47.684;10.806;2023-01-31T15:06:49;2.77;;;1.47;;
16737;SDS011;17906;47.684;10.806;2023-01-31T15:09:25;3.70;;;1.73;;
16737;SDS011;17906;47.684;10.806;2023-01-31T15:12:00;4.13;;;2.03;;
16737;SDS011;17906;47.684;10.806;2023-01-31T15:14:31;3.20;;;1.43;;